sensor_id;sensor_type;location;lat;lon;timestamp;P1;durP1;ratioP1;P2;durP2;ratioP2
5939;SDS011;2995;-31.998;115.906;2022-12-07T00:00:43;2.70;;;0.80;;
5939;SDS011;2995;-31.998;115.906;2022-12-07T00:03:14;4.20;;;0.90;;
5939;SDS011;2995;-31.998;115.906;2022-12-07T00:05:46;1.53;;;0.70;;
5939;SDS011;2995;-31.998;115.906;2022-12-07T00:08:17;6.20;;;0.80;;
5939;SDS011;2995;-31.998;115.906;2022-12-07T00:10:48;1.77;;;0.70;;
5939;SDS011;2995;-31.998;115.906;2022-12-07T00:13:22;1.97;;;0.90;;
5939;SDS011;2995;-31.998;115.906;2022-12-07T00:15:53;1.40;;;0.70;;
5939;SDS011;2995;-31.998;115.906;2022-12-07T00:18:24;2.40;;;0.90;;
5939;SDS011;2995;-31.998;115.906;2022-12-07T00:20:59;1.33;;;0.90;;
5939;SDS011;2995;-31.998;115.906;2022-12-07T00:23:30;2.10;;;0.70;;
5939;SDS011;2995;-31.998;115.906;2022-12-07T00:26:05;2.73;;;0.80;;
5939;SDS011;2995;-31.998;115.906;2022-12-07T00:28:39;1.93;;;0.80;;
5939;SDS011;2995;-31.998;115.906;2022-12-07T00:31:13;2.30;;;0.70;;
5939;SDS011;2995;-31.998;115.906;2022-12-07T00:33:45;5.10;;;0.80;;
5939;SDS011;2995;-31.998;115.906;2022-12-07T00:36:17;1.20;;;0.63;;
5939;SDS011;2995;-31.998;115.906;2022-12-07T00:38:49;2.20;;;0.83;;
5939;SDS011;2995;-31.998;115.906;2022-12-07T00:41:21;2.60;;;0.77;;
5939;SDS011;2995;-31.998;115.906;2022-12-07T00:43:55;1.60;;;0.80;;
5939;SDS011;2995;-31.998;115.906;2022-12-07T00:46:27;2.20;;;0.70;;
5939;SDS011;2995;-31.998;115.906;2022-12-07T00:48:58;2.70;;;0.67;;
5939;SDS011;2995;-31.998;115.906;2022-12-07T00:51:30;1.00;;;0.70;;
5939;SDS011;2995;-31.998;115.906;2022-12-07T00:54:01;4.73;;;0.97;;
5939;SDS011;2995;-31.998;115.906;2022-12-07T00:56:32;2.17;;;0.90;;
5939;SDS011;2995;-31.998;115.906;2022-12-07T00:59:06;2.50;;;0.77;;
5939;SDS011;2995;-31.998;115.906;2022-12-07T01:01:41;1.90;;;0.90;;
5939;SDS011;2995;-31.998;115.906;2022-12-07T01:04:12;1.10;;;0.70;;
5939;SDS011;2995;-31.998;115.906;2022-12-07T01:06:43;2.40;;;0.90;;
5939;SDS011;2995;-31.998;115.906;2022-12-07T01:09:15;2.00;;;0.60;;
5939;SDS011;2995;-31.998;115.906;2022-12-07T01:11:47;2.20;;;0.80;;
5939;SDS011;2995;-31.998;115.906;2022-12-07T01:14:21;1.63;;;0.70;;
5939;SDS011;2995;-31.998;115.906;2022-12-07T01:16:52;2.40;;;0.73;;
5939;SDS011;2995;-31.998;115.906;2022-12-07T01:19:23;1.63;;;0.90;;
5939;SDS011;2995;-31.998;115.906;2022-12-07T01:21:55;5.33;;;0.97;;
5939;SDS011;2995;-31.998;115.906;2022-12-07T01:24:26;2.27;;;0.80;;
5939;SDS011;2995;-31.998;115.906;2022-12-07T01:26:58;2.50;;;0.70;;
5939;SDS011;2995;-31.998;115.906;2022-12-07T01:29:31;2.03;;;0.80;;
5939;SDS011;2995;-31.998;115.906;2022-12-07T01:32:02;2.50;;;0.67;;
5939;SDS011;2995;-31.998;115.906;2022-12-07T01:34:34;2.63;;;0.90;;
5939;SDS011;2995;-31.998;115.906;2022-12-07T01:37:05;2.20;;;0.80;;
5939;SDS011;2995;-31.998;115.906;2022-12-07T01:39:36;3.20;;;1.00;;
5939;SDS011;2995;-31.998;115.906;2022-12-07T01:42:08;1.60;;;0.80;;
5939;SDS011;2995;-31.998;115.906;2022-12-07T01:47:44;1.27;;;0.80;;
5939;SDS011;2995;-31.998;115.906;2022-12-07T01:50:19;1.17;;;0.73;;
5939;SDS011;2995;-31.998;115.906;2022-12-07T01:52:54;1.13;;;0.70;;
5939;SDS011;2995;-31.998;115.906;2022-12-07T01:55:27;1.30;;;0.67;;
5939;SDS011;2995;-31.998;115.906;2022-12-07T01:57:59;2.10;;;0.83;;
5939;SDS011;2995;-31.998;115.906;2022-12-07T02:00:30;7.20;;;0.87;;
5939;SDS011;2995;-31.998;115.906;2022-12-07T02:03:04;2.30;;;0.70;;
5939;SDS011;2995;-31.998;115.906;2022-12-07T02:05:38;2.10;;;0.97;;
5939;SDS011;2995;-31.998;115.906;2022-12-07T02:08:12;3.00;;;0.83;;
5939;SDS011;2995;-31.998;115.906;2022-12-07T02:10:44;2.80;;;0.80;;
5939;SDS011;2995;-31.998;115.906;2022-12-07T02:13:16;1.10;;;0.60;;
5939;SDS011;2995;-31.998;115.906;2022-12-07T02:15:53;1.67;;;0.70;;
5939;SDS011;2995;-31.998;115.906;2022-12-07T02:18:52;2.30;;;0.70;;
5939;SDS011;2995;-31.998;115.906;2022-12-07T02:21:32;2.80;;;0.73;;
5939;SDS011;2995;-31.998;115.906;2022-12-07T02:24:15;6.03;;;1.00;;
5939;SDS011;2995;-31.998;115.906;2022-12-07T02:30:05;1.10;;;0.60;;
5939;SDS011;2995;-31.998;115.906;2022-12-07T02:32:45;2.33;;;0.70;;
5939;SDS011;2995;-31.998;115.906;2022-12-07T02:35:28;1.30;;;0.77;;
5939;SDS011;2995;-31.998;115.906;2022-12-07T02:38:04;1.37;;;0.83;;
5939;SDS011;2995;-31.998;115.906;2022-12-07T02:40:43;3.10;;;0.90;;
5939;SDS011;2995;-31.998;115.906;2022-12-07T02:43:18;1.80;;;1.10;;
5939;SDS011;2995;-31.998;115.906;2022-12-07T02:45:55;3.67;;;0.90;;
5939;SDS011;2995;-31.998;115.906;2022-12-07T02:48:30;2.03;;;0.80;;
5939;SDS011;2995;-31.998;115.906;2022-12-07T02:51:04;3.70;;;0.90;;
5939;SDS011;2995;-31.998;115.906;2022-12-07T02:53:36;4.03;;;0.90;;
5939;SDS011;2995;-31.998;115.906;2022-12-07T02:56:10;6.57;;;1.00;;
5939;SDS011;2995;-31.998;115.906;2022-12-07T02:58:53;5.93;;;0.90;;
5939;SDS011;2995;-31.998;115.906;2022-12-07T03:01:34;1.50;;;0.93;;
5939;SDS011;2995;-31.998;115.906;2022-12-07T03:04:14;2.87;;;1.03;;
5939;SDS011;2995;-31.998;115.906;2022-12-07T03:07:08;3.50;;;1.03;;
5939;SDS011;2995;-31.998;115.906;2022-12-07T03:09:50;2.80;;;0.93;;
5939;SDS011;2995;-31.998;115.906;2022-12-07T03:12:27;7.60;;;0.87;;
5939;SDS011;2995;-31.998;115.906;2022-12-07T03:15:05;4.00;;;1.07;;
5939;SDS011;2995;-31.998;115.906;2022-12-07T03:17:46;4.30;;;0.87;;
5939;SDS011;2995;-31.998;115.906;2022-12-07T03:20:19;3.10;;;0.90;;
5939;SDS011;2995;-31.998;115.906;2022-12-07T03:22:53;2.03;;;0.90;;
5939;SDS011;2995;-31.998;115.906;2022-12-07T03:25:26;3.43;;;1.03;;
5939;SDS011;2995;-31.998;115.906;2022-12-07T03:27:59;6.00;;;0.90;;
5939;SDS011;2995;-31.998;115.906;2022-12-07T03:30:36;1.37;;;0.70;;
5939;SDS011;2995;-31.998;115.906;2022-12-07T03:33:14;3.47;;;0.90;;
5939;SDS011;2995;-31.998;115.906;2022-12-07T03:35:50;3.83;;;0.70;;
5939;SDS011;2995;-31.998;115.906;2022-12-07T03:38:28;1.70;;;0.87;;
5939;SDS011;2995;-31.998;115.906;2022-12-07T03:41:05;8.27;;;2.03;;
5939;SDS011;2995;-31.998;115.906;2022-12-07T03:43:39;1.70;;;0.97;;
5939;SDS011;2995;-31.998;115.906;2022-12-07T03:46:13;1.40;;;0.90;;
5939;SDS011;2995;-31.998;115.906;2022-12-07T03:48:56;4.90;;;0.90;;
5939;SDS011;2995;-31.998;115.906;2022-12-07T03:51:36;3.00;;;0.90;;
5939;SDS011;2995;-31.998;115.906;2022-12-07T03:54:14;1.10;;;0.70;;
5939;SDS011;2995;-31.998;115.906;2022-12-07T03:56:48;3.43;;;1.00;;
5939;SDS011;2995;-31.998;115.906;2022-12-07T03:59:20;4.53;;;1.00;;
5939;SDS011;2995;-31.998;115.906;2022-12-07T04:01:53;1.87;;;0.60;;
5939;SDS011;2995;-31.998;115.906;2022-12-07T04:04:28;1.10;;;0.60;;
5939;SDS011;2995;-31.998;115.906;2022-12-07T04:06:59;1.70;;;0.87;;
5939;SDS011;2995;-31.998;115.906;2022-12-07T04:09:31;1.80;;;0.90;;
5939;SDS011;2995;-31.998;115.906;2022-12-07T04:12:02;5.37;;;1.00;;
5939;SDS011;2995;-31.998;115.906;2022-12-07T04:14:33;1.33;;;0.70;;
5939;SDS011;2995;-31.998;115.906;2022-12-07T04:17:04;1.10;;;0.70;;
5939;SDS011;2995;-31.998;115.906;2022-12-07T04:19:38;2.60;;;1.07;;
5939;SDS011;2995;-31.998;115.906;2022-12-07T04:22:10;1.77;;;1.10;;
5939;SDS011;2995;-31.998;115.906;2022-12-07T04:24:41;1.77;;;0.77;;
5939;SDS011;2995;-31.998;115.906;2022-12-07T04:27:12;1.30;;;0.83;;
5939;SDS011;2995;-31.998;115.906;2022-12-07T04:29:43;2.50;;;0.87;;
5939;SDS011;2995;-31.998;115.906;2022-12-07T04:32:14;2.73;;;0.80;;
5939;SDS011;2995;-31.998;115.906;2022-12-07T04:34:48;3.17;;;0.80;;
5939;SDS011;2995;-31.998;115.906;2022-12-07T04:37:19;1.30;;;0.80;;
5939;SDS011;2995;-31.998;115.906;2022-12-07T04:39:51;2.13;;;0.70;;
5939;SDS011;2995;-31.998;115.906;2022-12-07T04:42:22;1.30;;;0.77;;
5939;SDS011;2995;-31.998;115.906;2022-12-07T04:44:53;1.20;;;0.70;;
5939;SDS011;2995;-31.998;115.906;2022-12-07T04:47:25;1.63;;;0.77;;
5939;SDS011;2995;-31.998;115.906;2022-12-07T04:49:58;1.53;;;0.80;;
5939;SDS011;2995;-31.998;115.906;2022-12-07T04:52:29;2.13;;;0.70;;
5939;SDS011;2995;-31.998;115.906;2022-12-07T04:55:00;1.43;;;0.80;;
5939;SDS011;2995;-31.998;115.906;2022-12-07T04:57:32;2.50;;;1.00;;
5939;SDS011;2995;-31.998;115.906;2022-12-07T05:00:04;1.50;;;1.00;;
5939;SDS011;2995;-31.998;115.906;2022-12-07T05:02:36;1.43;;;0.80;;
5939;SDS011;2995;-31.998;115.906;2022-12-07T05:05:09;1.07;;;0.70;;
5939;SDS011;2995;-31.998;115.906;2022-12-07T05:07:40;2.63;;;0.97;;
5939;SDS011;2995;-31.998;115.906;2022-12-07T05:10:12;1.80;;;0.93;;
5939;SDS011;2995;-31.998;115.906;2022-12-07T05:12:43;2.80;;;0.90;;
5939;SDS011;2995;-31.998;115.906;2022-12-07T05:15:14;3.47;;;1.10;;
5939;SDS011;2995;-31.998;115.906;2022-12-07T05:17:46;1.60;;;0.80;;
5939;SDS011;2995;-31.998;115.906;2022-12-07T05:20:20;3.27;;;0.90;;
5939;SDS011;2995;-31.998;115.906;2022-12-07T05:22:51;1.60;;;0.70;;
5939;SDS011;2995;-31.998;115.906;2022-12-07T05:25:24;2.87;;;0.90;;
5939;SDS011;2995;-31.998;115.906;2022-12-07T05:27:56;6.50;;;1.10;;
5939;SDS011;2995;-31.998;115.906;2022-12-07T05:30:28;3.30;;;0.83;;
5939;SDS011;2995;-31.998;115.906;2022-12-07T05:32:59;4.63;;;1.10;;
5939;SDS011;2995;-31.998;115.906;2022-12-07T05:35:33;2.20;;;0.80;;
5939;SDS011;2995;-31.998;115.906;2022-12-07T05:38:05;1.40;;;0.70;;
5939;SDS011;2995;-31.998;115.906;2022-12-07T05:40:36;2.10;;;1.20;;
5939;SDS011;2995;-31.998;115.906;2022-12-07T05:43:07;1.77;;;0.70;;
5939;SDS011;2995;-31.998;115.906;2022-12-07T05:45:39;1.73;;;0.90;;
5939;SDS011;2995;-31.998;115.906;2022-12-07T05:48:11;2.37;;;0.97;;
5939;SDS011;2995;-31.998;115.906;2022-12-07T05:50:44;2.90;;;0.90;;
5939;SDS011;2995;-31.998;115.906;2022-12-07T05:53:19;2.13;;;0.90;;
5939;SDS011;2995;-31.998;115.906;2022-12-07T05:55:50;4.93;;;0.90;;
5939;SDS011;2995;-31.998;115.906;2022-12-07T05:58:22;2.40;;;0.97;;
5939;SDS011;2995;-31.998;115.906;2022-12-07T06:01:09;3.30;;;0.87;;
5939;SDS011;2995;-31.998;115.906;2022-12-07T06:03:40;1.60;;;0.90;;
5939;SDS011;2995;-31.998;115.906;2022-12-07T06:06:14;1.60;;;0.80;;
5939;SDS011;2995;-31.998;115.906;2022-12-07T06:08:45;1.60;;;0.80;;
5939;SDS011;2995;-31.998;115.906;2022-12-07T06:11:17;1.83;;;1.00;;
5939;SDS011;2995;-31.998;115.906;2022-12-07T06:14:04;1.40;;;0.80;;
5939;SDS011;2995;-31.998;115.906;2022-12-07T06:16:35;2.70;;;1.00;;
5939;SDS011;2995;-31.998;115.906;2022-12-07T06:19:06;1.73;;;1.00;;
5939;SDS011;2995;-31.998;115.906;2022-12-07T06:21:39;1.83;;;0.93;;
5939;SDS011;2995;-31.998;115.906;2022-12-07T06:24:11;2.93;;;1.00;;
5939;SDS011;2995;-31.998;115.906;2022-12-07T06:26:43;2.07;;;0.90;;
5939;SDS011;2995;-31.998;115.906;2022-12-07T06:29:17;4.43;;;1.00;;
5939;SDS011;2995;-31.998;115.906;2022-12-07T06:31:49;4.10;;;0.80;;
5939;SDS011;2995;-31.998;115.906;2022-12-07T06:34:20;2.00;;;0.90;;
5939;SDS011;2995;-31.998;115.906;2022-12-07T06:36:54;1.87;;;0.90;;
5939;SDS011;2995;-31.998;115.906;2022-12-07T06:39:26;6.33;;;1.10;;
5939;SDS011;2995;-31.998;115.906;2022-12-07T06:41:58;2.10;;;0.70;;
5939;SDS011;2995;-31.998;115.906;2022-12-07T06:44:30;5.00;;;1.07;;
5939;SDS011;2995;-31.998;115.906;2022-12-07T06:47:01;3.17;;;1.10;;
5939;SDS011;2995;-31.998;115.906;2022-12-07T06:49:34;1.60;;;0.90;;
5939;SDS011;2995;-31.998;115.906;2022-12-07T06:52:07;4.07;;;1.10;;
5939;SDS011;2995;-31.998;115.906;2022-12-07T06:54:38;3.90;;;0.90;;
5939;SDS011;2995;-31.998;115.906;2022-12-07T06:57:09;2.07;;;1.00;;
5939;SDS011;2995;-31.998;115.906;2022-12-07T06:59:40;2.53;;;0.80;;
5939;SDS011;2995;-31.998;115.906;2022-12-07T07:02:12;5.60;;;1.10;;
5939;SDS011;2995;-31.998;115.906;2022-12-07T07:04:43;2.07;;;1.00;;
5939;SDS011;2995;-31.998;115.906;2022-12-07T07:07:16;3.30;;;0.80;;
5939;SDS011;2995;-31.998;115.906;2022-12-07T07:09:47;5.07;;;1.00;;
5939;SDS011;2995;-31.998;115.906;2022-12-07T07:12:19;2.80;;;0.80;;
5939;SDS011;2995;-31.998;115.906;2022-12-07T07:14:50;2.40;;;0.90;;
5939;SDS011;2995;-31.998;115.906;2022-12-07T07:17:22;3.37;;;1.07;;
5939;SDS011;2995;-31.998;115.906;2022-12-07T07:19:53;1.70;;;0.90;;
5939;SDS011;2995;-31.998;115.906;2022-12-07T07:22:26;1.67;;;1.00;;
5939;SDS011;2995;-31.998;115.906;2022-12-07T07:24:58;1.53;;;1.00;;
5939;SDS011;2995;-31.998;115.906;2022-12-07T07:27:29;3.20;;;1.00;;
5939;SDS011;2995;-31.998;115.906;2022-12-07T07:30:00;3.20;;;1.20;;
5939;SDS011;2995;-31.998;115.906;2022-12-07T07:32:32;2.80;;;0.90;;
5939;SDS011;2995;-31.998;115.906;2022-12-07T07:35:03;2.60;;;0.90;;
5939;SDS011;2995;-31.998;115.906;2022-12-07T07:37:36;3.10;;;0.83;;
5939;SDS011;2995;-31.998;115.906;2022-12-07T07:40:08;5.50;;;1.00;;
5939;SDS011;2995;-31.998;115.906;2022-12-07T07:42:40;5.23;;;1.03;;
5939;SDS011;2995;-31.998;115.906;2022-12-07T07:45:11;1.70;;;0.83;;
5939;SDS011;2995;-31.998;115.906;2022-12-07T07:47:42;2.13;;;0.80;;
5939;SDS011;2995;-31.998;115.906;2022-12-07T07:50:13;3.83;;;1.10;;
5939;SDS011;2995;-31.998;115.906;2022-12-07T07:52:47;2.50;;;0.93;;
5939;SDS011;2995;-31.998;115.906;2022-12-07T07:55:18;2.13;;;1.00;;
5939;SDS011;2995;-31.998;115.906;2022-12-07T07:57:50;5.03;;;1.23;;
5939;SDS011;2995;-31.998;115.906;2022-12-07T08:00:21;3.57;;;1.00;;
5939;SDS011;2995;-31.998;115.906;2022-12-07T08:02:53;1.63;;;0.80;;
5939;SDS011;2995;-31.998;115.906;2022-12-07T08:05:25;3.23;;;1.10;;
5939;SDS011;2995;-31.998;115.906;2022-12-07T08:07:59;2.63;;;0.93;;
5939;SDS011;2995;-31.998;115.906;2022-12-07T08:10:31;2.87;;;1.00;;
5939;SDS011;2995;-31.998;115.906;2022-12-07T08:13:03;2.00;;;0.83;;
5939;SDS011;2995;-31.998;115.906;2022-12-07T08:15:40;2.17;;;0.87;;
5939;SDS011;2995;-31.998;115.906;2022-12-07T08:18:12;3.63;;;1.20;;
5939;SDS011;2995;-31.998;115.906;2022-12-07T08:20:44;2.53;;;1.00;;
5939;SDS011;2995;-31.998;115.906;2022-12-07T08:23:17;1.70;;;0.90;;
5939;SDS011;2995;-31.998;115.906;2022-12-07T08:25:48;4.40;;;0.90;;
5939;SDS011;2995;-31.998;115.906;2022-12-07T08:28:19;5.97;;;1.07;;
5939;SDS011;2995;-31.998;115.906;2022-12-07T08:30:51;2.97;;;0.73;;
5939;SDS011;2995;-31.998;115.906;2022-12-07T08:33:27;3.63;;;0.97;;
5939;SDS011;2995;-31.998;115.906;2022-12-07T08:36:00;2.17;;;0.90;;
5939;SDS011;2995;-31.998;115.906;2022-12-07T08:38:34;2.20;;;0.90;;
5939;SDS011;2995;-31.998;115.906;2022-12-07T08:41:06;1.83;;;0.90;;
5939;SDS011;2995;-31.998;115.906;2022-12-07T08:43:37;3.03;;;0.97;;
5939;SDS011;2995;-31.998;115.906;2022-12-07T08:46:09;1.60;;;1.00;;
5939;SDS011;2995;-31.998;115.906;2022-12-07T08:48:43;2.57;;;0.87;;
5939;SDS011;2995;-31.998;115.906;2022-12-07T08:51:17;2.40;;;0.90;;
5939;SDS011;2995;-31.998;115.906;2022-12-07T08:53:52;6.00;;;1.00;;
5939;SDS011;2995;-31.998;115.906;2022-12-07T08:56:24;3.20;;;1.00;;
5939;SDS011;2995;-31.998;115.906;2022-12-07T08:58:56;2.40;;;1.00;;
5939;SDS011;2995;-31.998;115.906;2022-12-07T09:01:28;3.17;;;1.00;;
5939;SDS011;2995;-31.998;115.906;2022-12-07T09:04:01;1.73;;;0.90;;
5939;SDS011;2995;-31.998;115.906;2022-12-07T09:06:32;2.70;;;0.80;;
5939;SDS011;2995;-31.998;115.906;2022-12-07T09:09:06;3.13;;;0.90;;
5939;SDS011;2995;-31.998;115.906;2022-12-07T09:11:38;2.50;;;0.87;;
5939;SDS011;2995;-31.998;115.906;2022-12-07T09:14:10;2.80;;;0.90;;
5939;SDS011;2995;-31.998;115.906;2022-12-07T09:16:42;1.50;;;0.90;;
5939;SDS011;2995;-31.998;115.906;2022-12-07T09:19:13;2.90;;;0.90;;
5939;SDS011;2995;-31.998;115.906;2022-12-07T09:21:45;2.80;;;0.90;;
5939;SDS011;2995;-31.998;115.906;2022-12-07T09:24:18;2.77;;;1.00;;
5939;SDS011;2995;-31.998;115.906;2022-12-07T09:26:49;1.87;;;0.90;;
5939;SDS011;2995;-31.998;115.906;2022-12-07T09:29:20;2.87;;;1.10;;
5939;SDS011;2995;-31.998;115.906;2022-12-07T09:31:53;4.53;;;1.10;;
5939;SDS011;2995;-31.998;115.906;2022-12-07T09:34:25;3.13;;;0.90;;
5939;SDS011;2995;-31.998;115.906;2022-12-07T09:36:57;3.00;;;0.90;;
5939;SDS011;2995;-31.998;115.906;2022-12-07T09:39:34;2.80;;;0.97;;
5939;SDS011;2995;-31.998;115.906;2022-12-07T09:42:08;1.53;;;0.73;;
5939;SDS011;2995;-31.998;115.906;2022-12-07T09:44:48;1.90;;;0.70;;
5939;SDS011;2995;-31.998;115.906;2022-12-07T09:47:19;4.37;;;1.00;;
5939;SDS011;2995;-31.998;115.906;2022-12-07T09:49:50;2.23;;;1.00;;
5939;SDS011;2995;-31.998;115.906;2022-12-07T09:52:25;1.40;;;0.80;;
5939;SDS011;2995;-31.998;115.906;2022-12-07T09:55:00;3.93;;;1.03;;
5939;SDS011;2995;-31.998;115.906;2022-12-07T09:57:37;2.90;;;1.00;;
5939;SDS011;2995;-31.998;115.906;2022-12-07T10:00:12;2.30;;;1.00;;
5939;SDS011;2995;-31.998;115.906;2022-12-07T10:02:46;4.40;;;1.00;;
5939;SDS011;2995;-31.998;115.906;2022-12-07T10:05:19;1.40;;;0.90;;
5939;SDS011;2995;-31.998;115.906;2022-12-07T10:07:53;2.13;;;0.80;;
5939;SDS011;2995;-31.998;115.906;2022-12-07T10:10:28;2.50;;;0.90;;
5939;SDS011;2995;-31.998;115.906;2022-12-07T10:13:02;1.93;;;0.97;;
5939;SDS011;2995;-31.998;115.906;2022-12-07T10:15:44;3.60;;;1.00;;
5939;SDS011;2995;-31.998;115.906;2022-12-07T10:18:24;9.13;;;1.43;;
5939;SDS011;2995;-31.998;115.906;2022-12-07T10:21:00;2.80;;;0.90;;
5939;SDS011;2995;-31.998;115.906;2022-12-07T10:23:43;3.13;;;1.00;;
5939;SDS011;2995;-31.998;115.906;2022-12-07T10:26:33;8.50;;;1.53;;
5939;SDS011;2995;-31.998;115.906;2022-12-07T10:29:13;4.93;;;1.60;;
5939;SDS011;2995;-31.998;115.906;2022-12-07T10:31:46;6.03;;;1.80;;
5939;SDS011;2995;-31.998;115.906;2022-12-07T10:34:22;6.90;;;1.30;;
5939;SDS011;2995;-31.998;115.906;2022-12-07T10:37:07;8.07;;;2.27;;
5939;SDS011;2995;-31.998;115.906;2022-12-07T10:39:46;10.67;;;2.40;;
5939;SDS011;2995;-31.998;115.906;2022-12-07T10:42:20;5.57;;;1.93;;
5939;SDS011;2995;-31.998;115.906;2022-12-07T10:45:06;9.37;;;1.97;;
5939;SDS011;2995;-31.998;115.906;2022-12-07T10:47:39;9.13;;;2.40;;
5939;SDS011;2995;-31.998;115.906;2022-12-07T10:50:33;9.97;;;2.37;;
5939;SDS011;2995;-31.998;115.906;2022-12-07T10:53:22;7.23;;;2.33;;
5939;SDS011;2995;-31.998;115.906;2022-12-07T10:56:12;10.67;;;1.93;;
5939;SDS011;2995;-31.998;115.906;2022-12-07T10:59:04;9.50;;;3.03;;
5939;SDS011;2995;-31.998;115.906;2022-12-07T11:01:48;13.57;;;2.60;;
5939;SDS011;2995;-31.998;115.906;2022-12-07T11:04:29;9.53;;;2.10;;
5939;SDS011;2995;-31.998;115.906;2022-12-07T11:07:06;6.10;;;2.60;;
5939;SDS011;2995;-31.998;115.906;2022-12-07T11:09:58;9.37;;;2.53;;
5939;SDS011;2995;-31.998;115.906;2022-12-07T11:12:38;9.40;;;2.43;;
5939;SDS011;2995;-31.998;115.906;2022-12-07T11:15:31;12.00;;;2.90;;
5939;SDS011;2995;-31.998;115.906;2022-12-07T11:18:11;12.50;;;2.53;;
5939;SDS011;2995;-31.998;115.906;2022-12-07T11:20:52;11.33;;;3.37;;
5939;SDS011;2995;-31.998;115.906;2022-12-07T11:23:30;8.17;;;2.43;;
5939;SDS011;2995;-31.998;115.906;2022-12-07T11:26:12;13.70;;;3.40;;
5939;SDS011;2995;-31.998;115.906;2022-12-07T11:28:58;8.67;;;2.60;;
5939;SDS011;2995;-31.998;115.906;2022-12-07T11:31:49;8.23;;;2.33;;
5939;SDS011;2995;-31.998;115.906;2022-12-07T11:34:29;13.00;;;2.67;;
5939;SDS011;2995;-31.998;115.906;2022-12-07T11:37:07;9.90;;;2.63;;
5939;SDS011;2995;-31.998;115.906;2022-12-07T11:39:44;5.23;;;2.30;;
5939;SDS011;2995;-31.998;115.906;2022-12-07T11:42:21;20.20;;;2.97;;
5939;SDS011;2995;-31.998;115.906;2022-12-07T11:44:55;11.20;;;2.60;;
5939;SDS011;2995;-31.998;115.906;2022-12-07T11:47:35;7.90;;;2.27;;
5939;SDS011;2995;-31.998;115.906;2022-12-07T11:50:14;10.03;;;2.73;;
5939;SDS011;2995;-31.998;115.906;2022-12-07T11:52:55;11.80;;;2.30;;
5939;SDS011;2995;-31.998;115.906;2022-12-07T11:55:30;9.87;;;2.50;;
5939;SDS011;2995;-31.998;115.906;2022-12-07T11:58:14;4.63;;;2.20;;
5939;SDS011;2995;-31.998;115.906;2022-12-07T12:01:08;8.07;;;2.10;;
5939;SDS011;2995;-31.998;115.906;2022-12-07T12:03:49;7.30;;;2.40;;
5939;SDS011;2995;-31.998;115.906;2022-12-07T12:06:22;11.10;;;2.07;;
5939;SDS011;2995;-31.998;115.906;2022-12-07T12:08:54;4.83;;;2.10;;
5939;SDS011;2995;-31.998;115.906;2022-12-07T12:11:36;6.17;;;1.97;;
5939;SDS011;2995;-31.998;115.906;2022-12-07T12:14:23;8.80;;;2.53;;
5939;SDS011;2995;-31.998;115.906;2022-12-07T12:20:21;6.17;;;2.00;;
5939;SDS011;2995;-31.998;115.906;2022-12-07T12:22:59;8.37;;;2.30;;
5939;SDS011;2995;-31.998;115.906;2022-12-07T12:25:36;8.60;;;2.53;;
5939;SDS011;2995;-31.998;115.906;2022-12-07T12:28:19;12.07;;;2.00;;
5939;SDS011;2995;-31.998;115.906;2022-12-07T12:31:06;5.27;;;1.50;;
5939;SDS011;2995;-31.998;115.906;2022-12-07T12:33:43;6.37;;;2.03;;
5939;SDS011;2995;-31.998;115.906;2022-12-07T12:36:21;9.73;;;2.47;;
5939;SDS011;2995;-31.998;115.906;2022-12-07T12:39:10;9.47;;;2.40;;
5939;SDS011;2995;-31.998;115.906;2022-12-07T12:47:43;7.43;;;2.43;;
5939;SDS011;2995;-31.998;115.906;2022-12-07T12:50:27;5.80;;;1.70;;
5939;SDS011;2995;-31.998;115.906;2022-12-07T12:53:19;6.93;;;2.13;;
5939;SDS011;2995;-31.998;115.906;2022-12-07T12:56:07;6.20;;;2.10;;
5939;SDS011;2995;-31.998;115.906;2022-12-07T12:58:51;4.57;;;1.87;;
5939;SDS011;2995;-31.998;115.906;2022-12-07T13:02:16;4.70;;;2.00;;
5939;SDS011;2995;-31.998;115.906;2022-12-07T13:04:52;7.30;;;2.20;;
5939;SDS011;2995;-31.998;115.906;2022-12-07T13:10:25;6.60;;;2.40;;
5939;SDS011;2995;-31.998;115.906;2022-12-07T13:13:05;6.33;;;2.17;;
5939;SDS011;2995;-31.998;115.906;2022-12-07T13:25:22;10.00;;;2.20;;
5939;SDS011;2995;-31.998;115.906;2022-12-07T13:28:09;7.37;;;1.90;;
5939;SDS011;2995;-31.998;115.906;2022-12-07T13:30:58;8.17;;;2.00;;
5939;SDS011;2995;-31.998;115.906;2022-12-07T13:33:43;4.13;;;1.63;;
5939;SDS011;2995;-31.998;115.906;2022-12-07T13:36:18;7.57;;;1.80;;
5939;SDS011;2995;-31.998;115.906;2022-12-07T13:38:53;8.53;;;1.87;;
5939;SDS011;2995;-31.998;115.906;2022-12-07T13:41:27;8.50;;;2.23;;
5939;SDS011;2995;-31.998;115.906;2022-12-07T13:44:01;9.63;;;1.67;;
5939;SDS011;2995;-31.998;115.906;2022-12-07T13:46:40;5.83;;;1.37;;
5939;SDS011;2995;-31.998;115.906;2022-12-07T13:49:17;7.03;;;1.53;;
5939;SDS011;2995;-31.998;115.906;2022-12-07T13:51:50;4.10;;;1.50;;
5939;SDS011;2995;-31.998;115.906;2022-12-07T13:54:22;2.03;;;1.20;;
5939;SDS011;2995;-31.998;115.906;2022-12-07T13:56:56;4.73;;;1.90;;
5939;SDS011;2995;-31.998;115.906;2022-12-07T13:59:28;11.23;;;1.30;;
5939;SDS011;2995;-31.998;115.906;2022-12-07T14:01:59;8.30;;;1.60;;
5939;SDS011;2995;-31.998;115.906;2022-12-07T14:04:32;18.70;;;1.63;;
5939;SDS011;2995;-31.998;115.906;2022-12-07T14:07:18;10.23;;;1.50;;
5939;SDS011;2995;-31.998;115.906;2022-12-07T14:09:55;4.13;;;1.27;;
5939;SDS011;2995;-31.998;115.906;2022-12-07T14:12:30;8.10;;;1.50;;
5939;SDS011;2995;-31.998;115.906;2022-12-07T14:15:04;19.47;;;1.83;;
5939;SDS011;2995;-31.998;115.906;2022-12-07T14:17:51;4.17;;;1.40;;
5939;SDS011;2995;-31.998;115.906;2022-12-07T14:20:30;6.20;;;1.50;;
5939;SDS011;2995;-31.998;115.906;2022-12-07T14:23:02;5.13;;;1.20;;
5939;SDS011;2995;-31.998;115.906;2022-12-07T14:25:45;3.03;;;1.20;;
5939;SDS011;2995;-31.998;115.906;2022-12-07T14:28:28;7.10;;;1.10;;
5939;SDS011;2995;-31.998;115.906;2022-12-07T14:31:01;7.37;;;1.60;;
5939;SDS011;2995;-31.998;115.906;2022-12-07T14:33:37;4.40;;;1.20;;
5939;SDS011;2995;-31.998;115.906;2022-12-07T14:36:09;7.83;;;1.20;;
5939;SDS011;2995;-31.998;115.906;2022-12-07T14:38:41;5.03;;;1.20;;
5939;SDS011;2995;-31.998;115.906;2022-12-07T14:41:14;7.10;;;1.20;;
5939;SDS011;2995;-31.998;115.906;2022-12-07T14:44:10;2.50;;;1.17;;
5939;SDS011;2995;-31.998;115.906;2022-12-07T14:46:41;7.13;;;1.23;;
5939;SDS011;2995;-31.998;115.906;2022-12-07T14:49:13;2.17;;;1.20;;
5939;SDS011;2995;-31.998;115.906;2022-12-07T14:51:44;5.93;;;1.23;;
5939;SDS011;2995;-31.998;115.906;2022-12-07T14:54:17;5.13;;;1.07;;
5939;SDS011;2995;-31.998;115.906;2022-12-07T14:56:49;5.63;;;1.10;;
5939;SDS011;2995;-31.998;115.906;2022-12-07T14:59:22;3.67;;;1.43;;
5939;SDS011;2995;-31.998;115.906;2022-12-07T15:01:54;4.57;;;1.10;;
5939;SDS011;2995;-31.998;115.906;2022-12-07T15:04:25;5.23;;;1.10;;
5939;SDS011;2995;-31.998;115.906;2022-12-07T15:06:56;7.47;;;1.00;;
5939;SDS011;2995;-31.998;115.906;2022-12-07T15:09:28;1.90;;;1.13;;
5939;SDS011;2995;-31.998;115.906;2022-12-07T15:12:00;2.67;;;0.97;;
5939;SDS011;2995;-31.998;115.906;2022-12-07T15:14:34;2.80;;;1.00;;
5939;SDS011;2995;-31.998;115.906;2022-12-07T15:17:05;5.37;;;1.43;;
5939;SDS011;2995;-31.998;115.906;2022-12-07T15:19:38;4.23;;;1.20;;
5939;SDS011;2995;-31.998;115.906;2022-12-07T15:22:10;2.03;;;1.03;;
5939;SDS011;2995;-31.998;115.906;2022-12-07T15:24:42;2.63;;;1.20;;
5939;SDS011;2995;-31.998;115.906;2022-12-07T15:27:13;3.43;;;1.30;;
5939;SDS011;2995;-31.998;115.906;2022-12-07T15:29:46;3.23;;;1.10;;
5939;SDS011;2995;-31.998;115.906;2022-12-07T15:32:17;6.50;;;1.17;;
5939;SDS011;2995;-31.998;115.906;2022-12-07T15:34:49;4.50;;;1.20;;
5939;SDS011;2995;-31.998;115.906;2022-12-07T15:37:20;2.63;;;1.13;;
5939;SDS011;2995;-31.998;115.906;2022-12-07T15:39:51;2.70;;;1.23;;
5939;SDS011;2995;-31.998;115.906;2022-12-07T15:42:22;3.07;;;1.43;;
5939;SDS011;2995;-31.998;115.906;2022-12-07T15:44:56;4.13;;;1.40;;
5939;SDS011;2995;-31.998;115.906;2022-12-07T15:47:31;4.50;;;1.30;;